sensor_id;sensor_type;location;lat;lon;timestamp;P1;durP1;ratioP1;P2;durP2;ratioP2
37791;SDS011;29527;55.766;37.570;2023-02-28T00:00:08;8.93;;;5.18;;
37791;SDS011;29527;55.766;37.570;2023-02-28T00:02:36;8.77;;;5.25;;
37791;SDS011;29527;55.766;37.570;2023-02-28T00:05:02;12.13;;;5.53;;
37791;SDS011;29527;55.766;37.570;2023-02-28T00:07:29;8.85;;;5.10;;
37791;SDS011;29527;55.766;37.570;2023-02-28T00:09:56;9.25;;;5.13;;
37791;SDS011;29527;55.766;37.570;2023-02-28T00:12:21;7.90;;;5.30;;
37791;SDS011;29527;55.766;37.570;2023-02-28T00:14:47;10.73;;;5.35;;
37791;SDS011;29527;55.766;37.570;2023-02-28T00:17:13;9.68;;;5.00;;
37791;SDS011;29527;55.766;37.570;2023-02-28T00:19:39;7.85;;;5.03;;
37791;SDS011;29527;55.766;37.570;2023-02-28T00:22:04;9.30;;;5.03;;
37791;SDS011;29527;55.766;37.570;2023-02-28T00:24:30;9.45;;;5.20;;
37791;SDS011;29527;55.766;37.570;2023-02-28T00:26:56;8.77;;;5.07;;
37791;SDS011;29527;55.766;37.570;2023-02-28T00:29:21;10.18;;;5.82;;
37791;SDS011;29527;55.766;37.570;2023-02-28T00:31:47;9.45;;;5.57;;
37791;SDS011;29527;55.766;37.570;2023-02-28T00:34:12;9.52;;;5.78;;
37791;SDS011;29527;55.766;37.570;2023-02-28T00:36:37;7.40;;;4.80;;
37791;SDS011;29527;55.766;37.570;2023-02-28T00:39:03;8.25;;;5.03;;
37791;SDS011;29527;55.766;37.570;2023-02-28T00:41:28;9.75;;;5.20;;
37791;SDS011;29527;55.766;37.570;2023-02-28T00:43:54;8.63;;;5.30;;
37791;SDS011;29527;55.766;37.570;2023-02-28T00:46:19;8.73;;;4.85;;
37791;SDS011;29527;55.766;37.570;2023-02-28T00:48:45;8.73;;;5.22;;
37791;SDS011;29527;55.766;37.570;2023-02-28T00:51:10;7.93;;;4.82;;
37791;SDS011;29527;55.766;37.570;2023-02-28T00:53:36;9.15;;;5.47;;
37791;SDS011;29527;55.766;37.570;2023-02-28T00:56:01;8.77;;;5.40;;
37791;SDS011;29527;55.766;37.570;2023-02-28T00:58:27;10.75;;;5.05;;
37791;SDS011;29527;55.766;37.570;2023-02-28T01:00:53;8.50;;;4.90;;
37791;SDS011;29527;55.766;37.570;2023-02-28T01:03:18;8.75;;;4.80;;
37791;SDS011;29527;55.766;37.570;2023-02-28T01:05:46;9.95;;;5.22;;
37791;SDS011;29527;55.766;37.570;2023-02-28T01:08:11;9.45;;;5.00;;
37791;SDS011;29527;55.766;37.570;2023-02-28T01:10:37;11.65;;;4.75;;
37791;SDS011;29527;55.766;37.570;2023-02-28T01:13:03;8.75;;;5.00;;
37791;SDS011;29527;55.766;37.570;2023-02-28T01:15:29;10.32;;;5.43;;
37791;SDS011;29527;55.766;37.570;2023-02-28T01:17:57;9.05;;;5.07;;
37791;SDS011;29527;55.766;37.570;2023-02-28T01:20:22;8.05;;;4.80;;
37791;SDS011;29527;55.766;37.570;2023-02-28T01:22:48;8.55;;;5.20;;
37791;SDS011;29527;55.766;37.570;2023-02-28T01:25:14;9.25;;;5.00;;
37791;SDS011;29527;55.766;37.570;2023-02-28T01:27:39;9.30;;;5.25;;
37791;SDS011;29527;55.766;37.570;2023-02-28T01:30:06;7.68;;;4.70;;
37791;SDS011;29527;55.766;37.570;2023-02-28T01:32:32;8.60;;;4.80;;
37791;SDS011;29527;55.766;37.570;2023-02-28T01:34:58;8.43;;;5.03;;
37791;SDS011;29527;55.766;37.570;2023-02-28T01:37:23;8.65;;;4.75;;
37791;SDS011;29527;55.766;37.570;2023-02-28T01:39:49;8.20;;;4.63;;
37791;SDS011;29527;55.766;37.570;2023-02-28T01:42:14;8.35;;;4.65;;
37791;SDS011;29527;55.766;37.570;2023-02-28T01:47:25;8.23;;;4.47;;
37791;SDS011;29527;55.766;37.570;2023-02-28T01:49:54;10.00;;;5.00;;
37791;SDS011;29527;55.766;37.570;2023-02-28T01:52:20;8.23;;;4.90;;
37791;SDS011;29527;55.766;37.570;2023-02-28T01:54:48;8.60;;;4.97;;
37791;SDS011;29527;55.766;37.570;2023-02-28T01:57:21;8.65;;;4.45;;
37791;SDS011;29527;55.766;37.570;2023-02-28T02:00:03;9.35;;;4.82;;
37791;SDS011;29527;55.766;37.570;2023-02-28T02:02:33;8.25;;;4.70;;
37791;SDS011;29527;55.766;37.570;2023-02-28T02:05:06;9.00;;;5.32;;
37791;SDS011;29527;55.766;37.570;2023-02-28T02:07:36;6.97;;;4.38;;
37791;SDS011;29527;55.766;37.570;2023-02-28T02:15:14;7.70;;;4.78;;
37791;SDS011;29527;55.766;37.570;2023-02-28T02:17:45;6.45;;;4.32;;
37791;SDS011;29527;55.766;37.570;2023-02-28T02:39:40;6.88;;;4.35;;
37791;SDS011;29527;55.766;37.570;2023-02-28T02:42:16;6.85;;;4.15;;
37791;SDS011;29527;55.766;37.570;2023-02-28T02:45:51;8.77;;;4.45;;
37791;SDS011;29527;55.766;37.570;2023-02-28T02:48:01;8.95;;;4.75;;
37791;SDS011;29527;55.766;37.570;2023-02-28T02:50:33;9.27;;;4.70;;
37791;SDS011;29527;55.766;37.570;2023-02-28T02:53:03;10.70;;;5.50;;
37791;SDS011;29527;55.766;37.570;2023-02-28T02:55:31;9.38;;;5.28;;
37791;SDS011;29527;55.766;37.570;2023-02-28T02:58:01;11.05;;;5.15;;
37791;SDS011;29527;55.766;37.570;2023-02-28T03:00:31;11.38;;;5.68;;
37791;SDS011;29527;55.766;37.570;2023-02-28T03:03:02;12.02;;;5.30;;
37791;SDS011;29527;55.766;37.570;2023-02-28T03:05:30;10.98;;;5.45;;
37791;SDS011;29527;55.766;37.570;2023-02-28T03:08:03;9.18;;;5.47;;
37791;SDS011;29527;55.766;37.570;2023-02-28T03:10:32;9.90;;;5.40;;
37791;SDS011;29527;55.766;37.570;2023-02-28T03:15:53;10.63;;;5.82;;
37791;SDS011;29527;55.766;37.570;2023-02-28T03:18:32;8.75;;;5.07;;
37791;SDS011;29527;55.766;37.570;2023-02-28T03:23:56;11.25;;;4.97;;
37791;SDS011;29527;55.766;37.570;2023-02-28T03:26:23;8.23;;;5.15;;
37791;SDS011;29527;55.766;37.570;2023-02-28T03:31:52;8.45;;;5.15;;
37791;SDS011;29527;55.766;37.570;2023-02-28T03:34:35;9.23;;;5.25;;
37791;SDS011;29527;55.766;37.570;2023-02-28T03:37:08;9.32;;;5.65;;
37791;SDS011;29527;55.766;37.570;2023-02-28T03:42:20;9.07;;;4.80;;
37791;SDS011;29527;55.766;37.570;2023-02-28T03:44:53;8.52;;;4.80;;
37791;SDS011;29527;55.766;37.570;2023-02-28T03:50:05;9.27;;;5.38;;
37791;SDS011;29527;55.766;37.570;2023-02-28T03:52:36;8.70;;;4.90;;
37791;SDS011;29527;55.766;37.570;2023-02-28T03:55:08;10.80;;;5.20;;
37791;SDS011;29527;55.766;37.570;2023-02-28T03:57:48;10.25;;;5.15;;
37791;SDS011;29527;55.766;37.570;2023-02-28T04:00:25;8.70;;;4.10;;
37791;SDS011;29527;55.766;37.570;2023-02-28T04:03:03;8.25;;;4.25;;
37791;SDS011;29527;55.766;37.570;2023-02-28T04:05:29;8.52;;;4.47;;
37791;SDS011;29527;55.766;37.570;2023-02-28T04:08:03;8.98;;;4.95;;
37791;SDS011;29527;55.766;37.570;2023-02-28T04:10:29;9.07;;;4.60;;
37791;SDS011;29527;55.766;37.570;2023-02-28T04:12:55;7.07;;;3.67;;
37791;SDS011;29527;55.766;37.570;2023-02-28T04:15:20;7.13;;;3.92;;
37791;SDS011;29527;55.766;37.570;2023-02-28T04:17:47;8.70;;;4.53;;
37791;SDS011;29527;55.766;37.570;2023-02-28T04:20:13;6.82;;;3.83;;
37791;SDS011;29527;55.766;37.570;2023-02-28T04:22:38;6.30;;;3.63;;
37791;SDS011;29527;55.766;37.570;2023-02-28T04:25:04;7.13;;;3.70;;
37791;SDS011;29527;55.766;37.570;2023-02-28T04:27:30;6.82;;;4.28;;
37791;SDS011;29527;55.766;37.570;2023-02-28T04:29:56;6.85;;;3.72;;
37791;SDS011;29527;55.766;37.570;2023-02-28T04:32:21;8.50;;;4.40;;
37791;SDS011;29527;55.766;37.570;2023-02-28T04:34:47;8.23;;;4.18;;
37791;SDS011;29527;55.766;37.570;2023-02-28T04:37:12;7.50;;;3.97;;
37791;SDS011;29527;55.766;37.570;2023-02-28T04:39:38;7.03;;;3.75;;
37791;SDS011;29527;55.766;37.570;2023-02-28T04:42:04;7.35;;;3.80;;
37791;SDS011;29527;55.766;37.570;2023-02-28T04:44:30;8.80;;;4.03;;
37791;SDS011;29527;55.766;37.570;2023-02-28T04:46:55;7.15;;;3.78;;
37791;SDS011;29527;55.766;37.570;2023-02-28T04:49:20;9.32;;;4.18;;
37791;SDS011;29527;55.766;37.570;2023-02-28T04:51:46;6.57;;;3.67;;
37791;SDS011;29527;55.766;37.570;2023-02-28T04:54:11;7.30;;;3.88;;
37791;SDS011;29527;55.766;37.570;2023-02-28T04:56:38;8.85;;;4.38;;
37791;SDS011;29527;55.766;37.570;2023-02-28T04:59:03;9.88;;;4.10;;
37791;SDS011;29527;55.766;37.570;2023-02-28T05:01:32;9.50;;;4.10;;
37791;SDS011;29527;55.766;37.570;2023-02-28T05:04:00;7.47;;;3.70;;
37791;SDS011;29527;55.766;37.570;2023-02-28T05:06:27;6.80;;;3.65;;
37791;SDS011;29527;55.766;37.570;2023-02-28T05:08:55;4.80;;;2.95;;
37791;SDS011;29527;55.766;37.570;2023-02-28T05:11:21;7.43;;;3.40;;
37791;SDS011;29527;55.766;37.570;2023-02-28T05:13:50;9.90;;;3.80;;
37791;SDS011;29527;55.766;37.570;2023-02-28T05:16:16;6.25;;;3.67;;
37791;SDS011;29527;55.766;37.570;2023-02-28T05:18:42;6.60;;;3.70;;
37791;SDS011;29527;55.766;37.570;2023-02-28T05:21:23;6.05;;;3.67;;
37791;SDS011;29527;55.766;37.570;2023-02-28T05:23:51;5.97;;;4.18;;
37791;SDS011;29527;55.766;37.570;2023-02-28T05:26:17;5.88;;;3.67;;
37791;SDS011;29527;55.766;37.570;2023-02-28T05:28:43;4.32;;;3.22;;
37791;SDS011;29527;55.766;37.570;2023-02-28T05:31:11;5.80;;;3.72;;
37791;SDS011;29527;55.766;37.570;2023-02-28T05:33:37;6.15;;;3.70;;
37791;SDS011;29527;55.766;37.570;2023-02-28T05:36:03;5.70;;;3.65;;
37791;SDS011;29527;55.766;37.570;2023-02-28T05:38:29;5.75;;;3.70;;
37791;SDS011;29527;55.766;37.570;2023-02-28T05:40:55;6.68;;;4.03;;
37791;SDS011;29527;55.766;37.570;2023-02-28T05:43:21;5.78;;;3.83;;
37791;SDS011;29527;55.766;37.570;2023-02-28T05:45:47;4.30;;;3.40;;
37791;SDS011;29527;55.766;37.570;2023-02-28T05:48:12;5.43;;;3.50;;
37791;SDS011;29527;55.766;37.570;2023-02-28T05:50:37;4.35;;;3.45;;
37791;SDS011;29527;55.766;37.570;2023-02-28T05:53:03;5.82;;;3.97;;
37791;SDS011;29527;55.766;37.570;2023-02-28T05:55:28;5.25;;;3.72;;
37791;SDS011;29527;55.766;37.570;2023-02-28T05:57:54;8.25;;;4.00;;
37791;SDS011;29527;55.766;37.570;2023-02-28T06:00:19;6.22;;;3.58;;
37791;SDS011;29527;55.766;37.570;2023-02-28T06:02:45;6.97;;;4.00;;
37791;SDS011;29527;55.766;37.570;2023-02-28T06:05:14;5.88;;;3.92;;
37791;SDS011;29527;55.766;37.570;2023-02-28T06:07:42;5.72;;;4.03;;
37791;SDS011;29527;55.766;37.570;2023-02-28T06:10:09;6.63;;;3.90;;
37791;SDS011;29527;55.766;37.570;2023-02-28T06:12:36;6.30;;;4.07;;
37791;SDS011;29527;55.766;37.570;2023-02-28T06:15:02;5.90;;;3.95;;
37791;SDS011;29527;55.766;37.570;2023-02-28T06:17:29;6.00;;;4.10;;
37791;SDS011;29527;55.766;37.570;2023-02-28T06:19:55;7.68;;;4.10;;
37791;SDS011;29527;55.766;37.570;2023-02-28T06:22:20;4.50;;;3.60;;
37791;SDS011;29527;55.766;37.570;2023-02-28T06:24:46;4.30;;;3.90;;
37791;SDS011;29527;55.766;37.570;2023-02-28T06:27:12;7.40;;;3.95;;
37791;SDS011;29527;55.766;37.570;2023-02-28T06:29:37;6.13;;;4.10;;
37791;SDS011;29527;55.766;37.570;2023-02-28T06:32:04;5.80;;;4.00;;
37791;SDS011;29527;55.766;37.570;2023-02-28T06:34:30;5.13;;;3.75;;
37791;SDS011;29527;55.766;37.570;2023-02-28T06:36:56;7.20;;;4.00;;
37791;SDS011;29527;55.766;37.570;2023-02-28T06:39:21;5.97;;;3.75;;
37791;SDS011;29527;55.766;37.570;2023-02-28T06:41:47;7.43;;;4.10;;
37791;SDS011;29527;55.766;37.570;2023-02-28T06:44:16;4.97;;;3.35;;
37791;SDS011;29527;55.766;37.570;2023-02-28T06:46:43;4.10;;;3.20;;
37791;SDS011;29527;55.766;37.570;2023-02-28T06:49:10;7.07;;;3.70;;
37791;SDS011;29527;55.766;37.570;2023-02-28T06:51:37;6.22;;;3.60;;
37791;SDS011;29527;55.766;37.570;2023-02-28T06:54:04;4.90;;;3.50;;
37791;SDS011;29527;55.766;37.570;2023-02-28T06:56:34;6.30;;;3.25;;
37791;SDS011;29527;55.766;37.570;2023-02-28T06:58:59;6.47;;;3.47;;
37791;SDS011;29527;55.766;37.570;2023-02-28T07:01:25;4.45;;;2.95;;
37791;SDS011;29527;55.766;37.570;2023-02-28T07:03:52;5.57;;;3.40;;
37791;SDS011;29527;55.766;37.570;2023-02-28T07:06:19;4.65;;;3.17;;
37791;SDS011;29527;55.766;37.570;2023-02-28T07:08:47;9.40;;;3.70;;
37791;SDS011;29527;55.766;37.570;2023-02-28T07:11:13;5.68;;;3.47;;
37791;SDS011;29527;55.766;37.570;2023-02-28T07:13:38;6.53;;;3.25;;
37791;SDS011;29527;55.766;37.570;2023-02-28T07:16:04;6.05;;;3.33;;
37791;SDS011;29527;55.766;37.570;2023-02-28T07:18:32;5.75;;;3.10;;
37791;SDS011;29527;55.766;37.570;2023-02-28T07:21:01;4.80;;;2.88;;
37791;SDS011;29527;55.766;37.570;2023-02-28T07:23:27;6.20;;;2.90;;
37791;SDS011;29527;55.766;37.570;2023-02-28T07:25:52;6.90;;;3.60;;
37791;SDS011;29527;55.766;37.570;2023-02-28T07:28:18;7.22;;;3.22;;
37791;SDS011;29527;55.766;37.570;2023-02-28T07:30:43;6.32;;;3.25;;
37791;SDS011;29527;55.766;37.570;2023-02-28T07:33:09;5.88;;;3.45;;
37791;SDS011;29527;55.766;37.570;2023-02-28T07:35:34;6.20;;;3.47;;
37791;SDS011;29527;55.766;37.570;2023-02-28T07:38:00;5.03;;;3.33;;
37791;SDS011;29527;55.766;37.570;2023-02-28T07:40:25;4.90;;;3.20;;
37791;SDS011;29527;55.766;37.570;2023-02-28T07:42:51;6.63;;;3.40;;
37791;SDS011;29527;55.766;37.570;2023-02-28T07:45:16;5.90;;;3.75;;
37791;SDS011;29527;55.766;37.570;2023-02-28T07:47:43;6.22;;;3.30;;
37791;SDS011;29527;55.766;37.570;2023-02-28T07:50:09;6.60;;;3.22;;
37791;SDS011;29527;55.766;37.570;2023-02-28T07:52:37;5.15;;;2.78;;
37791;SDS011;29527;55.766;37.570;2023-02-28T07:55:04;7.47;;;3.65;;
37791;SDS011;29527;55.766;37.570;2023-02-28T07:57:30;5.90;;;3.38;;
37791;SDS011;29527;55.766;37.570;2023-02-28T07:59:56;6.97;;;2.97;;
37791;SDS011;29527;55.766;37.570;2023-02-28T08:02:21;5.35;;;3.30;;
37791;SDS011;29527;55.766;37.570;2023-02-28T08:04:47;7.85;;;3.92;;
37791;SDS011;29527;55.766;37.570;2023-02-28T08:07:13;7.63;;;3.70;;
37791;SDS011;29527;55.766;37.570;2023-02-28T08:09:40;7.85;;;3.58;;
37791;SDS011;29527;55.766;37.570;2023-02-28T08:12:06;13.82;;;3.92;;
37791;SDS011;29527;55.766;37.570;2023-02-28T08:14:32;5.93;;;3.45;;
37791;SDS011;29527;55.766;37.570;2023-02-28T08:16:58;5.18;;;3.20;;
37791;SDS011;29527;55.766;37.570;2023-02-28T08:19:23;4.30;;;3.17;;
37791;SDS011;29527;55.766;37.570;2023-02-28T08:21:49;5.50;;;3.45;;
37791;SDS011;29527;55.766;37.570;2023-02-28T08:24:14;7.20;;;3.60;;
37791;SDS011;29527;55.766;37.570;2023-02-28T08:26:39;5.18;;;3.78;;
37791;SDS011;29527;55.766;37.570;2023-02-28T08:29:05;7.88;;;3.42;;
37791;SDS011;29527;55.766;37.570;2023-02-28T08:31:30;5.63;;;3.42;;
37791;SDS011;29527;55.766;37.570;2023-02-28T08:33:56;5.25;;;3.25;;
37791;SDS011;29527;55.766;37.570;2023-02-28T08:36:24;6.07;;;3.50;;
37791;SDS011;29527;55.766;37.570;2023-02-28T08:38:50;8.60;;;3.38;;
37791;SDS011;29527;55.766;37.570;2023-02-28T08:41:15;7.22;;;3.60;;
37791;SDS011;29527;55.766;37.570;2023-02-28T08:43:41;4.47;;;2.97;;
37791;SDS011;29527;55.766;37.570;2023-02-28T08:46:07;6.50;;;3.45;;
37791;SDS011;29527;55.766;37.570;2023-02-28T08:48:36;5.57;;;3.40;;
37791;SDS011;29527;55.766;37.570;2023-02-28T08:51:04;4.68;;;3.15;;
37791;SDS011;29527;55.766;37.570;2023-02-28T08:53:32;5.07;;;3.17;;
37791;SDS011;29527;55.766;37.570;2023-02-28T08:55:59;5.10;;;3.42;;
37791;SDS011;29527;55.766;37.570;2023-02-28T08:58:25;6.15;;;3.20;;
37791;SDS011;29527;55.766;37.570;2023-02-28T09:00:52;5.78;;;3.03;;
37791;SDS011;29527;55.766;37.570;2023-02-28T09:03:18;6.20;;;3.40;;
37791;SDS011;29527;55.766;37.570;2023-02-28T09:05:57;6.55;;;3.17;;
37791;SDS011;29527;55.766;37.570;2023-02-28T09:08:25;5.95;;;3.53;;
37791;SDS011;29527;55.766;37.570;2023-02-28T09:10:52;4.72;;;2.88;;
37791;SDS011;29527;55.766;37.570;2023-02-28T09:13:19;5.80;;;3.17;;
37791;SDS011;29527;55.766;37.570;2023-02-28T09:15:45;4.35;;;2.58;;
37791;SDS011;29527;55.766;37.570;2023-02-28T09:18:11;4.85;;;2.88;;
37791;SDS011;29527;55.766;37.570;2023-02-28T09:20:37;4.15;;;2.90;;
37791;SDS011;29527;55.766;37.570;2023-02-28T09:23:04;5.43;;;3.00;;
37791;SDS011;29527;55.766;37.570;2023-02-28T09:25:31;5.00;;;2.92;;
37791;SDS011;29527;55.766;37.570;2023-02-28T09:27:56;3.75;;;2.80;;
37791;SDS011;29527;55.766;37.570;2023-02-28T09:30:22;4.13;;;2.50;;
37791;SDS011;29527;55.766;37.570;2023-02-28T09:32:47;6.53;;;2.97;;
37791;SDS011;29527;55.766;37.570;2023-02-28T09:35:23;5.47;;;2.90;;
37791;SDS011;29527;55.766;37.570;2023-02-28T09:37:50;4.82;;;2.92;;
37791;SDS011;29527;55.766;37.570;2023-02-28T09:40:17;4.10;;;3.03;;
37791;SDS011;29527;55.766;37.570;2023-02-28T09:42:47;4.43;;;2.85;;
37791;SDS011;29527;55.766;37.570;2023-02-28T09:45:19;5.22;;;2.70;;
37791;SDS011;29527;55.766;37.570;2023-02-28T09:47:49;4.93;;;2.60;;
37791;SDS011;29527;55.766;37.570;2023-02-28T09:52:51;4.65;;;3.00;;
37791;SDS011;29527;55.766;37.570;2023-02-28T09:57:58;5.32;;;3.15;;
37791;SDS011;29527;55.766;37.570;2023-02-28T10:00:36;6.05;;;3.05;;
37791;SDS011;29527;55.766;37.570;2023-02-28T10:06:39;5.07;;;3.25;;
37791;SDS011;29527;55.766;37.570;2023-02-28T10:11:19;4.35;;;2.80;;
37791;SDS011;29527;55.766;37.570;2023-02-28T10:16:17;5.85;;;3.33;;
37791;SDS011;29527;55.766;37.570;2023-02-28T10:18:54;7.45;;;3.33;;
37791;SDS011;29527;55.766;37.570;2023-02-28T10:21:38;5.78;;;3.63;;
37791;SDS011;29527;55.766;37.570;2023-02-28T10:24:28;5.90;;;2.95;;
37791;SDS011;29527;55.766;37.570;2023-02-28T10:27:01;10.70;;;3.55;;
37791;SDS011;29527;55.766;37.570;2023-02-28T10:29:39;6.05;;;3.65;;
37791;SDS011;29527;55.766;37.570;2023-02-28T10:32:08;6.68;;;3.70;;
37791;SDS011;29527;55.766;37.570;2023-02-28T10:34:39;8.98;;;3.00;;
37791;SDS011;29527;55.766;37.570;2023-02-28T10:37:05;5.75;;;2.78;;
37791;SDS011;29527;55.766;37.570;2023-02-28T10:39:41;10.85;;;3.63;;
37791;SDS011;29527;55.766;37.570;2023-02-28T10:42:25;6.18;;;3.10;;
37791;SDS011;29527;55.766;37.570;2023-02-28T10:45:05;7.18;;;3.45;;
37791;SDS011;29527;55.766;37.570;2023-02-28T10:47:36;5.70;;;2.92;;
37791;SDS011;29527;55.766;37.570;2023-02-28T10:50:28;4.47;;;3.00;;
37791;SDS011;29527;55.766;37.570;2023-02-28T10:52:54;6.18;;;2.97;;
37791;SDS011;29527;55.766;37.570;2023-02-28T10:55:23;7.13;;;3.00;;
37791;SDS011;29527;55.766;37.570;2023-02-28T10:57:51;4.18;;;3.05;;
37791;SDS011;29527;55.766;37.570;2023-02-28T11:00:24;6.50;;;3.03;;
37791;SDS011;29527;55.766;37.570;2023-02-28T11:02:52;9.32;;;3.70;;
37791;SDS011;29527;55.766;37.570;2023-02-28T11:07:54;6.13;;;3.55;;
37791;SDS011;29527;55.766;37.570;2023-02-28T11:10:23;5.97;;;3.42;;
37791;SDS011;29527;55.766;37.570;2023-02-28T11:12:54;5.53;;;3.35;;
37791;SDS011;29527;55.766;37.570;2023-02-28T11:15:25;4.60;;;3.20;;
37791;SDS011;29527;55.766;37.570;2023-02-28T11:17:53;6.22;;;3.60;;
37791;SDS011;29527;55.766;37.570;2023-02-28T11:20:28;10.47;;;4.10;;
37791;SDS011;29527;55.766;37.570;2023-02-28T11:22:55;4.82;;;3.03;;
37791;SDS011;29527;55.766;37.570;2023-02-28T11:25:33;6.60;;;3.50;;
37791;SDS011;29527;55.766;37.570;2023-02-28T11:28:02;5.07;;;3.22;;
37791;SDS011;29527;55.766;37.570;2023-02-28T11:33:00;6.20;;;3.90;;
37791;SDS011;29527;55.766;37.570;2023-02-28T11:35:30;6.60;;;3.75;;
37791;SDS011;29527;55.766;37.570;2023-02-28T11:37:59;9.82;;;3.78;;
37791;SDS011;29527;55.766;37.570;2023-02-28T11:40:30;8.15;;;3.63;;
37791;SDS011;29527;55.766;37.570;2023-02-28T11:46:06;6.95;;;4.07;;
37791;SDS011;29527;55.766;37.570;2023-02-28T11:49:05;8.50;;;3.97;;
37791;SDS011;29527;55.766;37.570;2023-02-28T11:52:05;6.50;;;3.88;;
37791;SDS011;29527;55.766;37.570;2023-02-28T11:57:37;7.65;;;4.20;;
37791;SDS011;29527;55.766;37.570;2023-02-28T12:16:36;6.55;;;3.65;;
37791;SDS011;29527;55.766;37.570;2023-02-28T12:22:05;7.78;;;3.78;;
37791;SDS011;29527;55.766;37.570;2023-02-28T12:27:16;6.57;;;4.13;;
37791;SDS011;29527;55.766;37.570;2023-02-28T12:29:49;8.65;;;4.53;;
37791;SDS011;29527;55.766;37.570;2023-02-28T12:32:33;6.18;;;3.88;;
37791;SDS011;29527;55.766;37.570;2023-02-28T12:35:04;7.80;;;3.80;;
37791;SDS011;29527;55.766;37.570;2023-02-28T12:37:43;7.60;;;4.00;;
37791;SDS011;29527;55.766;37.570;2023-02-28T12:40:21;7.38;;;3.20;;
37791;SDS011;29527;55.766;37.570;2023-02-28T12:45:27;5.90;;;3.75;;
37791;SDS011;29527;55.766;37.570;2023-02-28T12:48:06;5.30;;;3.28;;
37791;SDS011;29527;55.766;37.570;2023-02-28T12:50:35;8.98;;;3.90;;
37791;SDS011;29527;55.766;37.570;2023-02-28T12:53:06;5.68;;;3.90;;
37791;SDS011;29527;55.766;37.570;2023-02-28T12:55:56;7.40;;;3.95;;
37791;SDS011;29527;55.766;37.570;2023-02-28T13:09:56;5.68;;;3.67;;
37791;SDS011;29527;55.766;37.570;2023-02-28T13:12:24;6.30;;;3.75;;
37791;SDS011;29527;55.766;37.570;2023-02-28T13:15:00;6.63;;;3.28;;
37791;SDS011;29527;55.766;37.570;2023-02-28T13:17:30;5.85;;;3.47;;
37791;SDS011;29527;55.766;37.570;2023-02-28T13:20:04;6.65;;;3.47;;
37791;SDS011;29527;55.766;37.570;2023-02-28T13:22:44;5.38;;;3.63;;
37791;SDS011;29527;55.766;37.570;2023-02-28T13:27:59;5.95;;;3.55;;
37791;SDS011;29527;55.766;37.570;2023-02-28T13:38:51;4.68;;;3.15;;
37791;SDS011;29527;55.766;37.570;2023-02-28T13:46:32;5.38;;;3.22;;
37791;SDS011;29527;55.766;37.570;2023-02-28T13:49:18;6.18;;;3.22;;
37791;SDS011;29527;55.766;37.570;2023-02-28T13:51:47;6.38;;;3.70;;
37791;SDS011;29527;55.766;37.570;2023-02-28T13:56:56;6.63;;;3.53;;
37791;SDS011;29527;55.766;37.570;2023-02-28T13:59:46;4.85;;;3.13;;
37791;SDS011;29527;55.766;37.570;2023-02-28T14:05:19;5.13;;;3.40;;
37791;SDS011;29527;55.766;37.570;2023-02-28T14:07:54;7.45;;;3.45;;
37791;SDS011;29527;55.766;37.570;2023-02-28T14:10:30;7.50;;;3.88;;
37791;SDS011;29527;55.766;37.570;2023-02-28T14:13:02;7.97;;;3.13;;
37791;SDS011;29527;55.766;37.570;2023-02-28T14:15:54;7.50;;;2.92;;
37791;SDS011;29527;55.766;37.570;2023-02-28T14:18:23;4.50;;;3.05;;
37791;SDS011;29527;55.766;37.570;2023-02-28T14:32:01;4.50;;;3.40;;
37791;SDS011;29527;55.766;37.570;2023-02-28T14:34:35;5.85;;;3.60;;
37791;SDS011;29527;55.766;37.570;2023-02-28T14:37:13;5.45;;;3.30;;
37791;SDS011;29527;55.766;37.570;2023-02-28T14:39:42;5.45;;;3.45;;
37791;SDS011;29527;55.766;37.570;2023-02-28T14:44:54;4.72;;;3.35;;
37791;SDS011;29527;55.766;37.570;2023-02-28T14:47:21;5.00;;;3.35;;
37791;SDS011;29527;55.766;37.570;2023-02-28T14:49:51;4.70;;;3.28;;
37791;SDS011;29527;55.766;37.570;2023-02-28T14:54:51;5.25;;;3.30;;
37791;SDS011;29527;55.766;37.570;2023-02-28T14:57:23;5.45;;;3.35;;
37791;SDS011;29527;55.766;37.570;2023-02-28T14:59:57;4.15;;;2.90;;
37791;SDS011;29527;55.766;37.570;2023-02-28T15:02:37;5.28;;;3.28;;
37791;SDS011;29527;55.766;37.570;2023-02-28T15:07:35;8.30;;;3.53;;
37791;SDS011;29527;55.766;37.570;2023-02-28T15:12:49;7.77;;;3.60;;
37791;SDS011;29527;55.766;37.570;2023-02-28T15:15:16;5.07;;;3.35;;
37791;SDS011;29527;55.766;37.570;2023-02-28T15:17:44;9.32;;;4.07;;
37791;SDS011;29527;55.766;37.570;2023-02-28T15:20:12;6.00;;;3.80;;
37791;SDS011;29527;55.766;37.570;2023-02-28T15:22:40;6.00;;;3.92;;
37791;SDS011;29527;55.766;37.570;2023-02-28T15:25:06;7.22;;;4.68;;
37791;SDS011;29527;55.766;37.570;2023-02-28T15:27:37;4.88;;;3.35;;
37791;SDS011;29527;55.766;37.570;2023-02-28T15:30:29;4.13;;;2.77;;
37791;SDS011;29527;55.766;37.570;2023-02-28T15:33:29;5.80;;;3.60;;
37791;SDS011;29527;55.766;37.570;2023-02-28T15:36:03;5.40;;;3.90;;
37791;SDS011;29527;55.766;37.570;2023-02-28T15:38:32;5.75;;;3.60;;
37791;SDS011;29527;55.766;37.570;2023-02-28T15:40:59;6.35;;;3.55;;
37791;SDS011;29527;55.766;37.570;2023-02-28T15:43:35;6.07;;;4.35;;
37791;SDS011;29527;55.766;37.570;2023-02-28T15:46:05;6.25;;;3.63;;
37791;SDS011;29527;55.766;37.570;2023-02-28T15:48:33;6.03;;;3.42;;
37791;SDS011;29527;55.766;37.570;2023-02-28T15:51:06;8.45;;;4.00;;
37791;SDS011;29527;55.766;37.570;2023-02-28T15:53:45;5.18;;;3.42;;
37791;SDS011;29527;55.766;37.570;2023-02-28T15:56:24;5.20;;;3.03;;
37791;SDS011;29527;55.766;37.570;2023-02-28T15:58:55;5.53;;;3.83;;
37791;SDS011;29527;55.766;37.570;2023-02-28T16:01:25;4.80;;;3.22;;
37791;SDS011;29527;55.766;37.570;2023-02-28T16:03:54;5.32;;;3.08;;
37791;SDS011;29527;55.766;37.570;2023-02-28T16:08:57;6.60;;;3.63;;
37791;SDS011;29527;55.766;37.570;2023-02-28T16:11:23;4.65;;;2.75;;
37791;SDS011;29527;55.766;37.570;2023-02-28T16:13:48;5.63;;;3.28;;
37791;SDS011;29527;55.766;37.570;2023-02-28T16:16:16;6.30;;;3.22;;
37791;SDS011;29527;55.766;37.570;2023-02-28T16:18:43;5.05;;;2.75;;
37791;SDS011;29527;55.766;37.570;2023-02-28T16:21:08;5.05;;;2.90;;
37791;SDS011;29527;55.766;37.570;2023-02-28T16:23:34;4.30;;;3.00;;
37791;SDS011;29527;55.766;37.570;2023-02-28T16:25:59;4.25;;;3.20;;
37791;SDS011;29527;55.766;37.570;2023-02-28T16:28:27;4.85;;;3.20;;
37791;SDS011;29527;55.766;37.570;2023-02-28T16:30:57;4.25;;;2.58;;
37791;SDS011;29527;55.766;37.570;2023-02-28T16:33:25;5.03;;;2.95;;
37791;SDS011;29527;55.766;37.570;2023-02-28T16:35:50;5.05;;;3.25;;
37791;SDS011;29527;55.766;37.570;2023-02-28T16:38:16;4.72;;;2.97;;
37791;SDS011;29527;55.766;37.570;2023-02-28T16:40:42;4.22;;;2.72;;
37791;SDS011;29527;55.766;37.570;2023-02-28T16:43:10;5.15;;;3.08;;
37791;SDS011;29527;55.766;37.570;2023-02-28T16:45:42;4.60;;;2.63;;
37791;SDS011;29527;55.766;37.570;2023-02-28T16:48:11;5.80;;;2.95;;
37791;SDS011;29527;55.766;37.570;2023-02-28T16:50:39;5.93;;;2.80;;
37791;SDS011;29527;55.766;37.570;2023-02-28T16:53:04;6.20;;;2.97;;
37791;SDS011;29527;55.766;37.570;2023-02-28T16:55:30;6.80;;;2.97;;
37791;SDS011;29527;55.766;37.570;2023-02-28T16:57:57;6.93;;;3.00;;
37791;SDS011;29527;55.766;37.570;2023-02-28T17:00:24;4.57;;;2.85;;
37791;SDS011;29527;55.766;37.570;2023-02-28T17:02:50;4.55;;;3.10;;
37791;SDS011;29527;55.766;37.570;2023-02-28T17:05:16;5.10;;;2.53;;
37791;SDS011;29527;55.766;37.570;2023-02-28T17:07:43;3.67;;;2.53;;
37791;SDS011;29527;55.766;37.570;2023-02-28T17:10:24;3.58;;;2.50;;
37791;SDS011;29527;55.766;37.570;2023-02-28T17:12:51;3.80;;;3.08;;